sensor_id;sensor_type;location;lat;lon;timestamp;P1;durP1;ratioP1;P2;durP2;ratioP2
52188;SDS011;38162;45.926;13.608;2023-12-20T00:01:36;50.40;;;32.53;;
52188;SDS011;38162;45.926;13.608;2023-12-20T00:04:02;49.53;;;32.60;;
52188;SDS011;38162;45.926;13.608;2023-12-20T00:06:28;55.13;;;33.67;;
52188;SDS011;38162;45.926;13.608;2023-12-20T00:08:57;51.03;;;31.63;;
52188;SDS011;38162;45.926;13.608;2023-12-20T00:11:23;45.40;;;27.90;;
52188;SDS011;38162;45.926;13.608;2023-12-20T00:13:49;42.20;;;25.77;;
52188;SDS011;38162;45.926;13.608;2023-12-20T00:16:15;49.00;;;27.90;;
52188;SDS011;38162;45.926;13.608;2023-12-20T00:18:40;46.83;;;26.03;;
52188;SDS011;38162;45.926;13.608;2023-12-20T00:21:06;44.83;;;26.73;;
52188;SDS011;38162;45.926;13.608;2023-12-20T00:23:32;44.60;;;25.63;;
52188;SDS011;38162;45.926;13.608;2023-12-20T00:25:58;36.60;;;24.17;;
52188;SDS011;38162;45.926;13.608;2023-12-20T00:28:23;50.03;;;28.00;;
52188;SDS011;38162;45.926;13.608;2023-12-20T00:30:49;37.40;;;25.00;;
52188;SDS011;38162;45.926;13.608;2023-12-20T00:33:15;46.80;;;24.23;;
52188;SDS011;38162;45.926;13.608;2023-12-20T00:35:40;38.17;;;23.37;;
52188;SDS011;38162;45.926;13.608;2023-12-20T00:38:06;34.10;;;21.60;;
52188;SDS011;38162;45.926;13.608;2023-12-20T00:40:33;41.70;;;24.50;;
52188;SDS011;38162;45.926;13.608;2023-12-20T00:42:59;36.10;;;22.77;;
52188;SDS011;38162;45.926;13.608;2023-12-20T00:45:25;40.73;;;25.10;;
52188;SDS011;38162;45.926;13.608;2023-12-20T00:47:51;51.77;;;29.83;;
52188;SDS011;38162;45.926;13.608;2023-12-20T00:50:17;47.27;;;28.13;;
52188;SDS011;38162;45.926;13.608;2023-12-20T00:52:42;44.00;;;26.00;;
52188;SDS011;38162;45.926;13.608;2023-12-20T00:55:08;36.87;;;24.07;;
52188;SDS011;38162;45.926;13.608;2023-12-20T00:57:34;38.97;;;25.10;;
52188;SDS011;38162;45.926;13.608;2023-12-20T01:00:00;45.37;;;25.67;;
52188;SDS011;38162;45.926;13.608;2023-12-20T01:02:26;39.67;;;23.73;;
52188;SDS011;38162;45.926;13.608;2023-12-20T01:04:51;40.67;;;25.40;;
52188;SDS011;38162;45.926;13.608;2023-12-20T01:07:17;35.50;;;22.27;;
52188;SDS011;38162;45.926;13.608;2023-12-20T01:09:43;35.37;;;21.73;;
52188;SDS011;38162;45.926;13.608;2023-12-20T01:12:09;36.27;;;20.43;;
52188;SDS011;38162;45.926;13.608;2023-12-20T01:14:35;34.37;;;19.97;;
52188;SDS011;38162;45.926;13.608;2023-12-20T01:17:01;26.17;;;15.87;;
52188;SDS011;38162;45.926;13.608;2023-12-20T01:19:27;25.87;;;15.90;;
52188;SDS011;38162;45.926;13.608;2023-12-20T01:21:54;25.13;;;15.67;;
52188;SDS011;38162;45.926;13.608;2023-12-20T01:24:20;32.07;;;17.43;;
52188;SDS011;38162;45.926;13.608;2023-12-20T01:26:46;31.90;;;16.47;;
52188;SDS011;38162;45.926;13.608;2023-12-20T01:29:12;27.07;;;15.23;;
52188;SDS011;38162;45.926;13.608;2023-12-20T01:31:39;26.77;;;15.37;;
52188;SDS011;38162;45.926;13.608;2023-12-20T01:34:05;24.17;;;14.87;;
52188;SDS011;38162;45.926;13.608;2023-12-20T01:36:31;25.27;;;15.60;;
52188;SDS011;38162;45.926;13.608;2023-12-20T01:38:57;29.73;;;17.03;;
52188;SDS011;38162;45.926;13.608;2023-12-20T01:41:23;32.53;;;19.30;;
52188;SDS011;38162;45.926;13.608;2023-12-20T01:43:49;32.90;;;19.33;;
52188;SDS011;38162;45.926;13.608;2023-12-20T01:46:14;31.87;;;19.70;;
52188;SDS011;38162;45.926;13.608;2023-12-20T01:48:41;33.73;;;19.90;;
52188;SDS011;38162;45.926;13.608;2023-12-20T01:51:07;32.63;;;20.50;;
52188;SDS011;38162;45.926;13.608;2023-12-20T01:53:33;41.10;;;22.27;;
52188;SDS011;38162;45.926;13.608;2023-12-20T01:55:59;38.20;;;21.63;;
52188;SDS011;38162;45.926;13.608;2023-12-20T01:58:26;42.27;;;23.77;;
52188;SDS011;38162;45.926;13.608;2023-12-20T02:00:52;39.23;;;24.33;;
52188;SDS011;38162;45.926;13.608;2023-12-20T02:03:19;44.67;;;24.70;;
52188;SDS011;38162;45.926;13.608;2023-12-20T02:05:45;38.90;;;23.07;;
52188;SDS011;38162;45.926;13.608;2023-12-20T02:08:13;37.80;;;22.53;;
52188;SDS011;38162;45.926;13.608;2023-12-20T02:10:38;38.20;;;21.97;;
52188;SDS011;38162;45.926;13.608;2023-12-20T02:13:05;33.77;;;19.90;;
52188;SDS011;38162;45.926;13.608;2023-12-20T02:15:31;30.90;;;19.67;;
52188;SDS011;38162;45.926;13.608;2023-12-20T02:17:57;37.93;;;20.80;;
52188;SDS011;38162;45.926;13.608;2023-12-20T02:20:23;29.40;;;18.73;;
52188;SDS011;38162;45.926;13.608;2023-12-20T02:22:48;30.27;;;18.80;;
52188;SDS011;38162;45.926;13.608;2023-12-20T02:25:14;31.93;;;18.87;;
52188;SDS011;38162;45.926;13.608;2023-12-20T02:27:40;33.50;;;19.63;;
52188;SDS011;38162;45.926;13.608;2023-12-20T02:30:06;33.57;;;19.77;;
52188;SDS011;38162;45.926;13.608;2023-12-20T02:32:33;31.93;;;19.20;;
52188;SDS011;38162;45.926;13.608;2023-12-20T02:34:59;34.17;;;18.50;;
52188;SDS011;38162;45.926;13.608;2023-12-20T02:37:24;31.00;;;17.90;;
52188;SDS011;38162;45.926;13.608;2023-12-20T02:39:50;30.47;;;17.70;;
52188;SDS011;38162;45.926;13.608;2023-12-20T02:42:16;34.40;;;18.93;;
52188;SDS011;38162;45.926;13.608;2023-12-20T02:44:42;30.60;;;17.20;;
52188;SDS011;38162;45.926;13.608;2023-12-20T02:47:07;33.00;;;17.80;;
52188;SDS011;38162;45.926;13.608;2023-12-20T02:49:33;28.20;;;17.97;;
52188;SDS011;38162;45.926;13.608;2023-12-20T02:51:59;34.53;;;18.80;;
52188;SDS011;38162;45.926;13.608;2023-12-20T02:54:25;33.00;;;17.57;;
52188;SDS011;38162;45.926;13.608;2023-12-20T02:56:50;30.73;;;17.17;;
52188;SDS011;38162;45.926;13.608;2023-12-20T02:59:16;29.83;;;17.63;;
52188;SDS011;38162;45.926;13.608;2023-12-20T03:01:44;33.23;;;18.23;;
52188;SDS011;38162;45.926;13.608;2023-12-20T03:04:11;27.30;;;17.13;;
52188;SDS011;38162;45.926;13.608;2023-12-20T03:06:37;28.40;;;16.50;;
52188;SDS011;38162;45.926;13.608;2023-12-20T03:09:03;28.70;;;16.07;;
52188;SDS011;38162;45.926;13.608;2023-12-20T03:11:29;30.90;;;17.33;;
52188;SDS011;38162;45.926;13.608;2023-12-20T03:13:56;27.47;;;15.43;;
52188;SDS011;38162;45.926;13.608;2023-12-20T03:16:22;27.80;;;15.73;;
52188;SDS011;38162;45.926;13.608;2023-12-20T03:18:48;28.77;;;15.97;;
52188;SDS011;38162;45.926;13.608;2023-12-20T03:21:14;24.80;;;15.00;;
52188;SDS011;38162;45.926;13.608;2023-12-20T03:23:40;27.60;;;15.73;;
52188;SDS011;38162;45.926;13.608;2023-12-20T03:26:06;27.37;;;15.53;;
52188;SDS011;38162;45.926;13.608;2023-12-20T03:28:32;25.97;;;15.53;;
52188;SDS011;38162;45.926;13.608;2023-12-20T03:30:59;25.67;;;15.53;;
52188;SDS011;38162;45.926;13.608;2023-12-20T03:33:25;26.03;;;14.77;;
52188;SDS011;38162;45.926;13.608;2023-12-20T03:35:50;22.10;;;14.97;;
52188;SDS011;38162;45.926;13.608;2023-12-20T03:38:16;23.47;;;14.57;;
52188;SDS011;38162;45.926;13.608;2023-12-20T03:40:42;23.13;;;14.13;;
52188;SDS011;38162;45.926;13.608;2023-12-20T03:43:08;25.23;;;14.77;;
52188;SDS011;38162;45.926;13.608;2023-12-20T03:45:34;23.23;;;14.80;;
52188;SDS011;38162;45.926;13.608;2023-12-20T03:47:59;22.33;;;13.30;;
52188;SDS011;38162;45.926;13.608;2023-12-20T03:50:26;24.37;;;11.83;;
52188;SDS011;38162;45.926;13.608;2023-12-20T03:52:52;20.03;;;11.83;;
52188;SDS011;38162;45.926;13.608;2023-12-20T03:55:17;20.83;;;12.63;;
52188;SDS011;38162;45.926;13.608;2023-12-20T03:57:43;21.07;;;12.60;;
52188;SDS011;38162;45.926;13.608;2023-12-20T04:00:09;22.70;;;12.17;;
52188;SDS011;38162;45.926;13.608;2023-12-20T04:02:36;23.10;;;13.30;;
52188;SDS011;38162;45.926;13.608;2023-12-20T04:05:06;20.60;;;12.50;;
52188;SDS011;38162;45.926;13.608;2023-12-20T04:07:32;25.83;;;14.70;;
52188;SDS011;38162;45.926;13.608;2023-12-20T04:09:59;24.13;;;14.60;;
52188;SDS011;38162;45.926;13.608;2023-12-20T04:12:25;25.73;;;15.23;;
52188;SDS011;38162;45.926;13.608;2023-12-20T04:14:51;26.03;;;15.17;;
52188;SDS011;38162;45.926;13.608;2023-12-20T04:17:17;25.63;;;14.90;;
52188;SDS011;38162;45.926;13.608;2023-12-20T04:19:43;29.10;;;14.77;;
52188;SDS011;38162;45.926;13.608;2023-12-20T04:22:09;25.00;;;14.37;;
52188;SDS011;38162;45.926;13.608;2023-12-20T04:24:35;28.87;;;15.27;;
52188;SDS011;38162;45.926;13.608;2023-12-20T04:27:01;26.97;;;15.17;;
52188;SDS011;38162;45.926;13.608;2023-12-20T04:29:27;24.00;;;13.80;;
52188;SDS011;38162;45.926;13.608;2023-12-20T04:31:53;27.57;;;13.30;;
52188;SDS011;38162;45.926;13.608;2023-12-20T04:34:19;27.17;;;13.60;;
52188;SDS011;38162;45.926;13.608;2023-12-20T04:36:44;20.67;;;12.20;;
52188;SDS011;38162;45.926;13.608;2023-12-20T04:39:11;22.50;;;12.80;;
52188;SDS011;38162;45.926;13.608;2023-12-20T04:41:38;20.60;;;12.17;;
52188;SDS011;38162;45.926;13.608;2023-12-20T04:44:04;18.23;;;11.27;;
52188;SDS011;38162;45.926;13.608;2023-12-20T04:46:31;20.93;;;11.43;;
52188;SDS011;38162;45.926;13.608;2023-12-20T04:48:57;16.70;;;10.03;;
52188;SDS011;38162;45.926;13.608;2023-12-20T04:51:22;18.90;;;10.33;;
52188;SDS011;38162;45.926;13.608;2023-12-20T04:53:48;15.67;;;9.23;;
52188;SDS011;38162;45.926;13.608;2023-12-20T04:56:14;14.17;;;9.27;;
52188;SDS011;38162;45.926;13.608;2023-12-20T04:58:40;16.17;;;9.33;;
52188;SDS011;38162;45.926;13.608;2023-12-20T05:01:06;14.57;;;8.83;;
52188;SDS011;38162;45.926;13.608;2023-12-20T05:03:32;15.33;;;7.80;;
52188;SDS011;38162;45.926;13.608;2023-12-20T05:05:58;16.60;;;8.37;;
52188;SDS011;38162;45.926;13.608;2023-12-20T05:08:23;17.57;;;9.17;;
52188;SDS011;38162;45.926;13.608;2023-12-20T05:10:50;14.93;;;7.93;;
52188;SDS011;38162;45.926;13.608;2023-12-20T05:13:22;14.77;;;8.60;;
52188;SDS011;38162;45.926;13.608;2023-12-20T05:15:48;14.60;;;7.63;;
52188;SDS011;38162;45.926;13.608;2023-12-20T05:18:13;14.63;;;7.53;;
52188;SDS011;38162;45.926;13.608;2023-12-20T05:20:39;18.70;;;7.70;;
52188;SDS011;38162;45.926;13.608;2023-12-20T05:23:06;16.10;;;7.57;;
52188;SDS011;38162;45.926;13.608;2023-12-20T05:25:32;15.63;;;9.23;;
52188;SDS011;38162;45.926;13.608;2023-12-20T05:27:58;12.13;;;6.73;;
52188;SDS011;38162;45.926;13.608;2023-12-20T05:30:24;12.97;;;6.13;;
52188;SDS011;38162;45.926;13.608;2023-12-20T05:32:49;12.27;;;5.80;;
52188;SDS011;38162;45.926;13.608;2023-12-20T05:35:16;11.00;;;6.57;;
52188;SDS011;38162;45.926;13.608;2023-12-20T05:37:42;11.30;;;6.13;;
52188;SDS011;38162;45.926;13.608;2023-12-20T05:40:08;12.97;;;5.83;;
52188;SDS011;38162;45.926;13.608;2023-12-20T05:42:37;15.37;;;7.07;;
52188;SDS011;38162;45.926;13.608;2023-12-20T05:45:03;12.70;;;7.93;;
52188;SDS011;38162;45.926;13.608;2023-12-20T05:47:30;16.30;;;8.97;;
52188;SDS011;38162;45.926;13.608;2023-12-20T05:49:56;16.33;;;9.10;;
52188;SDS011;38162;45.926;13.608;2023-12-20T05:52:21;16.63;;;10.07;;
52188;SDS011;38162;45.926;13.608;2023-12-20T05:54:47;22.43;;;9.97;;
52188;SDS011;38162;45.926;13.608;2023-12-20T05:57:13;19.67;;;10.90;;
52188;SDS011;38162;45.926;13.608;2023-12-20T05:59:39;18.47;;;10.20;;
52188;SDS011;38162;45.926;13.608;2023-12-20T06:02:05;20.33;;;10.60;;
52188;SDS011;38162;45.926;13.608;2023-12-20T06:04:31;21.87;;;11.27;;
52188;SDS011;38162;45.926;13.608;2023-12-20T06:06:57;23.07;;;12.83;;
52188;SDS011;38162;45.926;13.608;2023-12-20T06:09:23;23.97;;;11.30;;
52188;SDS011;38162;45.926;13.608;2023-12-20T06:11:49;23.30;;;10.80;;
52188;SDS011;38162;45.926;13.608;2023-12-20T06:14:14;18.87;;;10.03;;
52188;SDS011;38162;45.926;13.608;2023-12-20T06:16:40;19.50;;;10.43;;
52188;SDS011;38162;45.926;13.608;2023-12-20T06:19:06;16.67;;;9.27;;
52188;SDS011;38162;45.926;13.608;2023-12-20T06:21:32;15.70;;;9.70;;
52188;SDS011;38162;45.926;13.608;2023-12-20T06:23:58;21.50;;;10.03;;
52188;SDS011;38162;45.926;13.608;2023-12-20T06:26:25;19.07;;;9.97;;
52188;SDS011;38162;45.926;13.608;2023-12-20T06:28:50;18.57;;;9.50;;
52188;SDS011;38162;45.926;13.608;2023-12-20T06:31:16;18.10;;;10.50;;
52188;SDS011;38162;45.926;13.608;2023-12-20T06:33:42;20.37;;;9.67;;
52188;SDS011;38162;45.926;13.608;2023-12-20T06:36:11;17.30;;;9.50;;
52188;SDS011;38162;45.926;13.608;2023-12-20T06:38:38;16.43;;;9.37;;
52188;SDS011;38162;45.926;13.608;2023-12-20T06:41:03;16.83;;;9.30;;
52188;SDS011;38162;45.926;13.608;2023-12-20T06:43:29;14.77;;;9.33;;
52188;SDS011;38162;45.926;13.608;2023-12-20T06:45:56;23.53;;;10.80;;
52188;SDS011;38162;45.926;13.608;2023-12-20T06:48:22;24.50;;;12.67;;
52188;SDS011;38162;45.926;13.608;2023-12-20T06:50:48;20.50;;;11.80;;
52188;SDS011;38162;45.926;13.608;2023-12-20T06:53:13;21.00;;;12.20;;
52188;SDS011;38162;45.926;13.608;2023-12-20T06:55:39;23.20;;;11.70;;
52188;SDS011;38162;45.926;13.608;2023-12-20T06:58:05;20.23;;;11.67;;
52188;SDS011;38162;45.926;13.608;2023-12-20T07:00:32;29.37;;;12.53;;
52188;SDS011;38162;45.926;13.608;2023-12-20T07:02:58;52.83;;;12.77;;
52188;SDS011;38162;45.926;13.608;2023-12-20T07:05:24;70.03;;;14.83;;
52188;SDS011;38162;45.926;13.608;2023-12-20T07:07:50;53.97;;;13.57;;
52188;SDS011;38162;45.926;13.608;2023-12-20T07:10:16;44.67;;;12.57;;
52188;SDS011;38162;45.926;13.608;2023-12-20T07:12:42;32.47;;;12.63;;
52188;SDS011;38162;45.926;13.608;2023-12-20T07:15:08;36.87;;;11.53;;
52188;SDS011;38162;45.926;13.608;2023-12-20T07:17:34;33.10;;;12.40;;
52188;SDS011;38162;45.926;13.608;2023-12-20T07:20:00;94.77;;;19.93;;
52188;SDS011;38162;45.926;13.608;2023-12-20T07:22:31;100.77;;;17.10;;
52188;SDS011;38162;45.926;13.608;2023-12-20T07:24:58;103.27;;;19.20;;
52188;SDS011;38162;45.926;13.608;2023-12-20T07:27:25;102.67;;;19.30;;
52188;SDS011;38162;45.926;13.608;2023-12-20T07:29:51;108.07;;;16.13;;
52188;SDS011;38162;45.926;13.608;2023-12-20T07:32:17;77.77;;;15.50;;
52188;SDS011;38162;45.926;13.608;2023-12-20T07:34:43;83.63;;;15.70;;
52188;SDS011;38162;45.926;13.608;2023-12-20T07:37:09;108.33;;;17.60;;
52188;SDS011;38162;45.926;13.608;2023-12-20T07:39:37;121.97;;;18.53;;
52188;SDS011;38162;45.926;13.608;2023-12-20T07:42:05;79.60;;;15.57;;
52188;SDS011;38162;45.926;13.608;2023-12-20T07:44:30;57.60;;;13.83;;
52188;SDS011;38162;45.926;13.608;2023-12-20T07:46:56;60.87;;;14.60;;
52188;SDS011;38162;45.926;13.608;2023-12-20T07:49:23;63.27;;;15.13;;
52188;SDS011;38162;45.926;13.608;2023-12-20T07:51:49;47.00;;;12.60;;
52188;SDS011;38162;45.926;13.608;2023-12-20T07:54:15;58.60;;;13.37;;
52188;SDS011;38162;45.926;13.608;2023-12-20T07:56:41;48.50;;;15.17;;
52188;SDS011;38162;45.926;13.608;2023-12-20T07:59:07;63.23;;;14.17;;
52188;SDS011;38162;45.926;13.608;2023-12-20T08:01:32;42.27;;;14.33;;
52188;SDS011;38162;45.926;13.608;2023-12-20T08:03:58;50.30;;;13.77;;
52188;SDS011;38162;45.926;13.608;2023-12-20T08:06:24;53.37;;;15.13;;
52188;SDS011;38162;45.926;13.608;2023-12-20T08:08:50;47.40;;;15.83;;
52188;SDS011;38162;45.926;13.608;2023-12-20T08:11:15;52.27;;;14.30;;
52188;SDS011;38162;45.926;13.608;2023-12-20T08:13:42;54.60;;;15.07;;
52188;SDS011;38162;45.926;13.608;2023-12-20T08:16:08;56.13;;;16.47;;
52188;SDS011;38162;45.926;13.608;2023-12-20T08:18:34;51.87;;;17.10;;
52188;SDS011;38162;45.926;13.608;2023-12-20T08:21:00;54.40;;;15.27;;
52188;SDS011;38162;45.926;13.608;2023-12-20T08:23:26;51.00;;;15.80;;
52188;SDS011;38162;45.926;13.608;2023-12-20T08:25:52;49.90;;;16.53;;
52188;SDS011;38162;45.926;13.608;2023-12-20T08:28:18;53.20;;;15.80;;
52188;SDS011;38162;45.926;13.608;2023-12-20T08:30:43;36.53;;;16.57;;
52188;SDS011;38162;45.926;13.608;2023-12-20T08:33:09;36.30;;;15.57;;
52188;SDS011;38162;45.926;13.608;2023-12-20T08:35:37;41.20;;;17.37;;
52188;SDS011;38162;45.926;13.608;2023-12-20T08:38:06;44.30;;;20.90;;
52188;SDS011;38162;45.926;13.608;2023-12-20T08:40:32;49.43;;;23.30;;
52188;SDS011;38162;45.926;13.608;2023-12-20T08:42:58;56.83;;;22.10;;
52188;SDS011;38162;45.926;13.608;2023-12-20T08:45:23;42.83;;;20.67;;
52188;SDS011;38162;45.926;13.608;2023-12-20T08:47:49;46.13;;;19.73;;
52188;SDS011;38162;45.926;13.608;2023-12-20T08:50:15;38.47;;;21.70;;
52188;SDS011;38162;45.926;13.608;2023-12-20T08:52:41;35.60;;;19.33;;
52188;SDS011;38162;45.926;13.608;2023-12-20T08:55:07;29.37;;;17.77;;
52188;SDS011;38162;45.926;13.608;2023-12-20T08:57:35;29.87;;;15.83;;
52188;SDS011;38162;45.926;13.608;2023-12-20T09:00:01;36.43;;;18.60;;
52188;SDS011;38162;45.926;13.608;2023-12-20T09:02:28;41.97;;;20.57;;
52188;SDS011;38162;45.926;13.608;2023-12-20T09:04:54;40.10;;;19.60;;
52188;SDS011;38162;45.926;13.608;2023-12-20T09:07:24;39.77;;;18.83;;
52188;SDS011;38162;45.926;13.608;2023-12-20T09:09:51;36.40;;;18.50;;
52188;SDS011;38162;45.926;13.608;2023-12-20T09:12:17;45.73;;;17.27;;
52188;SDS011;38162;45.926;13.608;2023-12-20T09:14:47;37.57;;;15.97;;
52188;SDS011;38162;45.926;13.608;2023-12-20T09:17:14;35.87;;;15.67;;
52188;SDS011;38162;45.926;13.608;2023-12-20T09:19:41;30.77;;;15.43;;
52188;SDS011;38162;45.926;13.608;2023-12-20T09:22:09;38.13;;;15.57;;
52188;SDS011;38162;45.926;13.608;2023-12-20T09:24:34;24.50;;;15.00;;
52188;SDS011;38162;45.926;13.608;2023-12-20T09:27:00;26.87;;;14.43;;
52188;SDS011;38162;45.926;13.608;2023-12-20T09:29:26;26.60;;;11.97;;
52188;SDS011;38162;45.926;13.608;2023-12-20T09:31:52;29.27;;;11.87;;
52188;SDS011;38162;45.926;13.608;2023-12-20T09:34:18;25.93;;;11.13;;
52188;SDS011;38162;45.926;13.608;2023-12-20T09:36:43;20.30;;;11.87;;
52188;SDS011;38162;45.926;13.608;2023-12-20T09:39:15;19.53;;;10.17;;
52188;SDS011;38162;45.926;13.608;2023-12-20T09:41:46;19.90;;;10.63;;
52188;SDS011;38162;45.926;13.608;2023-12-20T09:44:25;18.83;;;10.97;;
52188;SDS011;38162;45.926;13.608;2023-12-20T09:46:51;17.87;;;10.97;;
52188;SDS011;38162;45.926;13.608;2023-12-20T09:49:19;22.60;;;10.90;;
52188;SDS011;38162;45.926;13.608;2023-12-20T09:51:46;19.60;;;10.60;;
52188;SDS011;38162;45.926;13.608;2023-12-20T09:54:13;32.60;;;14.27;;
52188;SDS011;38162;45.926;13.608;2023-12-20T09:56:40;36.53;;;14.87;;
52188;SDS011;38162;45.926;13.608;2023-12-20T09:59:06;32.00;;;16.80;;
52188;SDS011;38162;45.926;13.608;2023-12-20T10:01:32;34.53;;;16.83;;
52188;SDS011;38162;45.926;13.608;2023-12-20T10:04:00;36.73;;;16.37;;
52188;SDS011;38162;45.926;13.608;2023-12-20T10:06:32;29.13;;;14.90;;
52188;SDS011;38162;45.926;13.608;2023-12-20T10:08:57;31.43;;;14.97;;
52188;SDS011;38162;45.926;13.608;2023-12-20T10:11:24;32.77;;;14.07;;
52188;SDS011;38162;45.926;13.608;2023-12-20T10:13:50;27.37;;;11.90;;
52188;SDS011;38162;45.926;13.608;2023-12-20T10:16:16;26.70;;;12.93;;
52188;SDS011;38162;45.926;13.608;2023-12-20T10:18:42;28.53;;;14.63;;
52188;SDS011;38162;45.926;13.608;2023-12-20T10:21:08;30.37;;;16.17;;
52188;SDS011;38162;45.926;13.608;2023-12-20T10:23:36;35.57;;;16.27;;
52188;SDS011;38162;45.926;13.608;2023-12-20T10:26:04;24.57;;;15.40;;
52188;SDS011;38162;45.926;13.608;2023-12-20T10:28:33;26.33;;;13.53;;
52188;SDS011;38162;45.926;13.608;2023-12-20T10:30:59;23.10;;;13.80;;
52188;SDS011;38162;45.926;13.608;2023-12-20T10:33:26;29.23;;;13.60;;
52188;SDS011;38162;45.926;13.608;2023-12-20T10:35:53;27.87;;;13.63;;
52188;SDS011;38162;45.926;13.608;2023-12-20T10:38:20;25.53;;;12.77;;
52188;SDS011;38162;45.926;13.608;2023-12-20T10:40:47;31.20;;;13.10;;
52188;SDS011;38162;45.926;13.608;2023-12-20T10:43:14;31.27;;;14.13;;
52188;SDS011;38162;45.926;13.608;2023-12-20T10:45:41;38.73;;;14.80;;
52188;SDS011;38162;45.926;13.608;2023-12-20T10:48:09;20.50;;;10.37;;
52188;SDS011;38162;45.926;13.608;2023-12-20T10:50:39;20.97;;;9.50;;
52188;SDS011;38162;45.926;13.608;2023-12-20T10:53:07;15.83;;;9.50;;
52188;SDS011;38162;45.926;13.608;2023-12-20T10:55:32;22.43;;;11.30;;
52188;SDS011;38162;45.926;13.608;2023-12-20T10:58:06;19.73;;;11.43;;
52188;SDS011;38162;45.926;13.608;2023-12-20T11:00:35;16.43;;;11.00;;
52188;SDS011;38162;45.926;13.608;2023-12-20T11:03:06;25.87;;;13.53;;
52188;SDS011;38162;45.926;13.608;2023-12-20T11:05:51;30.03;;;14.60;;
52188;SDS011;38162;45.926;13.608;2023-12-20T11:08:36;33.07;;;14.53;;
52188;SDS011;38162;45.926;13.608;2023-12-20T11:11:14;25.93;;;14.73;;
52188;SDS011;38162;45.926;13.608;2023-12-20T11:13:59;25.10;;;14.53;;
52188;SDS011;38162;45.926;13.608;2023-12-20T11:19:04;29.70;;;13.93;;
52188;SDS011;38162;45.926;13.608;2023-12-20T11:21:30;24.08;;;14.10;;
52188;SDS011;38162;45.926;13.608;2023-12-20T11:23:56;28.23;;;13.63;;
52188;SDS011;38162;45.926;13.608;2023-12-20T11:26:23;27.73;;;14.57;;
52188;SDS011;38162;45.926;13.608;2023-12-20T11:28:53;29.27;;;14.77;;
52188;SDS011;38162;45.926;13.608;2023-12-20T11:31:19;23.03;;;13.27;;
52188;SDS011;38162;45.926;13.608;2023-12-20T11:33:45;25.10;;;14.37;;
52188;SDS011;38162;45.926;13.608;2023-12-20T11:36:18;35.37;;;15.53;;
52188;SDS011;38162;45.926;13.608;2023-12-20T11:38:57;24.57;;;14.67;;
52188;SDS011;38162;45.926;13.608;2023-12-20T11:41:25;26.50;;;14.50;;
52188;SDS011;38162;45.926;13.608;2023-12-20T11:43:54;29.70;;;14.20;;
52188;SDS011;38162;45.926;13.608;2023-12-20T11:46:21;19.73;;;13.30;;
52188;SDS011;38162;45.926;13.608;2023-12-20T11:48:47;22.00;;;12.07;;
52188;SDS011;38162;45.926;13.608;2023-12-20T11:51:13;24.37;;;11.10;;
52188;SDS011;38162;45.926;13.608;2023-12-20T11:53:39;20.20;;;10.77;;
52188;SDS011;38162;45.926;13.608;2023-12-20T11:56:07;18.67;;;11.10;;
52188;SDS011;38162;45.926;13.608;2023-12-20T11:58:34;21.73;;;10.50;;
52188;SDS011;38162;45.926;13.608;2023-12-20T12:01:00;17.90;;;10.47;;
52188;SDS011;38162;45.926;13.608;2023-12-20T12:03:29;18.87;;;11.83;;
52188;SDS011;38162;45.926;13.608;2023-12-20T12:05:55;20.87;;;12.13;;
52188;SDS011;38162;45.926;13.608;2023-12-20T12:08:21;26.63;;;12.10;;
52188;SDS011;38162;45.926;13.608;2023-12-20T12:10:46;22.43;;;11.63;;
52188;SDS011;38162;45.926;13.608;2023-12-20T12:13:12;19.20;;;11.03;;
52188;SDS011;38162;45.926;13.608;2023-12-20T12:15:39;19.93;;;11.33;;
52188;SDS011;38162;45.926;13.608;2023-12-20T12:18:07;20.33;;;11.20;;
52188;SDS011;38162;45.926;13.608;2023-12-20T12:20:33;20.90;;;11.00;;
52188;SDS011;38162;45.926;13.608;2023-12-20T12:23:02;19.40;;;10.87;;
52188;SDS011;38162;45.926;13.608;2023-12-20T12:25:30;25.60;;;10.70;;
52188;SDS011;38162;45.926;13.608;2023-12-20T12:28:00;32.17;;;13.57;;
52188;SDS011;38162;45.926;13.608;2023-12-20T12:30:27;27.63;;;12.33;;
52188;SDS011;38162;45.926;13.608;2023-12-20T12:32:53;24.97;;;12.27;;
52188;SDS011;38162;45.926;13.608;2023-12-20T12:35:20;22.33;;;12.57;;
52188;SDS011;38162;45.926;13.608;2023-12-20T12:37:46;24.87;;;11.23;;
52188;SDS011;38162;45.926;13.608;2023-12-20T12:40:13;20.57;;;11.93;;
52188;SDS011;38162;45.926;13.608;2023-12-20T12:42:40;21.10;;;12.17;;
52188;SDS011;38162;45.926;13.608;2023-12-20T12:45:08;23.27;;;11.40;;
52188;SDS011;38162;45.926;13.608;2023-12-20T12:47:35;20.10;;;11.07;;
52188;SDS011;38162;45.926;13.608;2023-12-20T12:50:01;24.10;;;11.83;;
52188;SDS011;38162;45.926;13.608;2023-12-20T12:52:28;24.80;;;12.23;;
52188;SDS011;38162;45.926;13.608;2023-12-20T12:54:53;23.63;;;12.67;;
52188;SDS011;38162;45.926;13.608;2023-12-20T12:57:19;29.60;;;11.60;;
52188;SDS011;38162;45.926;13.608;2023-12-20T12:59:45;20.60;;;11.13;;
52188;SDS011;38162;45.926;13.608;2023-12-20T13:02:12;30.27;;;11.83;;
52188;SDS011;38162;45.926;13.608;2023-12-20T13:04:39;19.23;;;10.93;;
52188;SDS011;38162;45.926;13.608;2023-12-20T13:07:06;22.07;;;11.93;;
52188;SDS011;38162;45.926;13.608;2023-12-20T13:09:32;23.10;;;11.60;;
52188;SDS011;38162;45.926;13.608;2023-12-20T13:11:58;20.87;;;11.37;;
52188;SDS011;38162;45.926;13.608;2023-12-20T13:14:24;21.93;;;12.10;;
52188;SDS011;38162;45.926;13.608;2023-12-20T13:16:50;31.60;;;12.90;;
52188;SDS011;38162;45.926;13.608;2023-12-20T13:19:15;23.00;;;12.53;;
52188;SDS011;38162;45.926;13.608;2023-12-20T13:21:41;22.83;;;12.10;;
52188;SDS011;38162;45.926;13.608;2023-12-20T13:24:07;28.20;;;14.30;;
52188;SDS011;38162;45.926;13.608;2023-12-20T13:26:32;29.13;;;18.33;;
52188;SDS011;38162;45.926;13.608;2023-12-20T13:28:58;29.30;;;18.97;;
52188;SDS011;38162;45.926;13.608;2023-12-20T13:31:24;34.90;;;20.07;;
52188;SDS011;38162;45.926;13.608;2023-12-20T13:33:50;34.67;;;19.57;;
52188;SDS011;38162;45.926;13.608;2023-12-20T13:36:17;32.67;;;19.40;;
52188;SDS011;38162;45.926;13.608;2023-12-20T13:38:43;34.47;;;19.87;;
52188;SDS011;38162;45.926;13.608;2023-12-20T13:41:09;36.80;;;21.53;;
52188;SDS011;38162;45.926;13.608;2023-12-20T13:43:34;37.10;;;21.93;;
52188;SDS011;38162;45.926;13.608;2023-12-20T13:46:00;41.27;;;22.37;;
52188;SDS011;38162;45.926;13.608;2023-12-20T13:48:26;35.63;;;20.63;;
52188;SDS011;38162;45.926;13.608;2023-12-20T13:50:52;36.07;;;22.03;;
52188;SDS011;38162;45.926;13.608;2023-12-20T13:53:18;37.30;;;20.80;;
52188;SDS011;38162;45.926;13.608;2023-12-20T13:55:44;41.03;;;21.03;;
52188;SDS011;38162;45.926;13.608;2023-12-20T13:58:10;37.57;;;21.30;;
52188;SDS011;38162;45.926;13.608;2023-12-20T14:00:36;34.20;;;21.03;;
52188;SDS011;38162;45.926;13.608;2023-12-20T17:28:13;26.83;;;17.40;;
52188;SDS011;38162;45.926;13.608;2023-12-20T17:31:19;27.17;;;15.25;;
52188;SDS011;38162;45.926;13.608;2023-12-20T17:34:06;22.67;;;14.53;;
52188;SDS011;38162;45.926;13.608;2023-12-20T17:36:34;23.07;;;14.00;;